createdAt,value
2022-09-11T00:01:36.497Z,30.17
2022-09-11T00:04:03.741Z,29.65
2022-09-11T00:06:31.290Z,29.80
2022-09-11T00:09:02.581Z,30.73
2022-09-11T00:11:31.749Z,32.25
2022-09-11T00:13:58.919Z,30.23
2022-09-11T00:16:36.483Z,28.08
2022-09-11T00:19:05.861Z,31.70
2022-09-11T00:21:32.939Z,31.25
2022-09-11T00:23:59.942Z,29.98
2022-09-11T00:26:26.939Z,32.38
2022-09-11T00:28:54.181Z,29.83
2022-09-11T00:31:25.473Z,30.30
2022-09-11T00:33:52.460Z,29.42
2022-09-11T00:36:21.281Z,27.90
2022-09-11T00:38:48.420Z,30.40
2022-09-11T00:41:20.200Z,31.83
2022-09-11T00:43:55.799Z,30.17
2022-09-11T00:46:24.809Z,28.33
2022-09-11T00:48:51.767Z,30.15
2022-09-11T00:51:26.521Z,28.42
2022-09-11T00:53:54.501Z,30.25
2022-09-11T00:56:21.840Z,30.30
2022-09-11T00:58:48.767Z,31.83
2022-09-11T01:01:15.807Z,32.97
2022-09-11T01:03:42.788Z,28.90
2022-09-11T01:06:10.799Z,33.85
2022-09-11T01:08:38.508Z,31.67
2022-09-11T01:11:56.599Z,32.83
2022-09-11T01:14:48.164Z,32.08
2022-09-11T01:17:33.120Z,32.17
2022-09-11T01:20:25.100Z,31.65
2022-09-11T01:23:07.181Z,34.60
2022-09-11T01:25:40.119Z,37.55
2022-09-11T01:28:13.783Z,38.47
2022-09-11T01:30:42.239Z,42.92
2022-09-11T01:33:29.599Z,39.85
2022-09-11T01:36:06.180Z,42.07
2022-09-11T01:38:37.921Z,37.72
2022-09-11T01:41:12.739Z,35.90
2022-09-11T01:44:18.829Z,37.78
2022-09-11T01:46:46.704Z,38.58
2022-09-11T01:49:22.028Z,40.13
2022-09-11T01:51:50.346Z,35.90
2022-09-11T01:54:17.971Z,37.35
2022-09-11T01:56:51.409Z,36.20
2022-09-11T01:59:20.822Z,34.15
2022-09-11T02:01:51.388Z,35.07
2022-09-11T02:04:23.762Z,36.85
2022-09-11T02:06:59.347Z,38.13
2022-09-11T02:09:27.444Z,32.78
2022-09-11T02:11:54.498Z,35.53
2022-09-11T02:14:29.128Z,35.97
2022-09-11T02:17:02.062Z,33.88
2022-09-11T02:19:29.792Z,34.42
2022-09-11T02:21:58.074Z,37.67
2022-09-11T02:24:25.212Z,37.53
2022-09-11T02:26:54.411Z,33.33
2022-09-11T02:29:21.536Z,32.72
2022-09-11T02:31:48.903Z,34.67
2022-09-11T02:34:15.794Z,30.00
2022-09-11T02:36:54.729Z,31.17
2022-09-11T02:39:28.881Z,29.33
2022-09-11T02:42:20.150Z,29.67
2022-09-11T02:45:08.841Z,30.80
2022-09-11T02:47:38.484Z,27.48
2022-09-11T02:50:29.392Z,29.13
2022-09-11T02:53:07.849Z,31.07
2022-09-11T02:55:56.827Z,31.13
2022-09-11T02:58:30.928Z,29.17
2022-09-11T03:01:00.985Z,26.60
2022-09-11T03:03:27.855Z,27.77
2022-09-11T03:05:54.711Z,29.43
2022-09-11T03:08:22.024Z,26.58
2022-09-11T03:10:50.133Z,29.83
2022-09-11T03:13:16.967Z,27.15
2022-09-11T03:15:43.825Z,26.00
2022-09-11T03:18:11.708Z,30.73
2022-09-11T03:20:39.283Z,25.73
2022-09-11T03:23:08.409Z,28.50
2022-09-11T03:25:35.352Z,30.98
2022-09-11T03:28:04.745Z,28.33
2022-09-11T03:30:32.292Z,33.73
2022-09-11T03:33:01.093Z,27.23
2022-09-11T03:35:28.248Z,26.45
2022-09-11T03:37:57.848Z,29.00
2022-09-11T03:40:24.747Z,27.63
2022-09-11T03:42:51.629Z,28.77
2022-09-11T03:45:18.885Z,25.30
2022-09-11T03:47:45.987Z,30.95
2022-09-11T03:50:12.846Z,28.83
2022-09-11T03:52:39.893Z,26.58
2022-09-11T03:55:07.388Z,27.60
2022-09-11T03:57:34.529Z,23.02
2022-09-11T04:00:04.385Z,23.48
2022-09-11T04:02:31.965Z,29.35
2022-09-11T04:04:59.005Z,25.13
2022-09-11T04:07:25.875Z,22.87
2022-09-11T04:09:52.704Z,17.98
2022-09-11T04:12:19.707Z,18.77
2022-09-11T04:14:46.493Z,17.65
2022-09-11T04:17:13.768Z,21.60
2022-09-11T04:19:40.605Z,19.87
2022-09-11T04:22:07.748Z,17.77
2022-09-11T04:24:35.355Z,17.85
2022-09-11T04:27:02.727Z,17.20
2022-09-11T04:29:29.668Z,18.05
2022-09-11T04:31:57.806Z,17.87
2022-09-11T04:34:25.485Z,18.95
2022-09-11T04:36:52.381Z,18.77
2022-09-11T04:39:19.296Z,16.98
2022-09-11T04:41:46.146Z,16.35
2022-09-11T04:44:14.564Z,19.77
2022-09-11T04:46:41.425Z,16.15
2022-09-11T04:49:08.985Z,14.95
2022-09-11T04:51:36.826Z,15.75
2022-09-11T04:54:04.408Z,15.10
2022-09-11T04:56:34.353Z,15.40
2022-09-11T04:59:03.037Z,14.20
2022-09-11T05:01:30.740Z,13.20
2022-09-11T05:03:57.610Z,15.00
2022-09-11T05:06:25.054Z,13.95
2022-09-11T05:08:52.066Z,13.80
2022-09-11T05:11:20.417Z,13.95
2022-09-11T05:13:47.346Z,15.90
2022-09-11T05:16:15.455Z,14.15
2022-09-11T05:18:43.393Z,12.68
2022-09-11T05:21:13.065Z,12.17
2022-09-11T05:23:40.325Z,12.35
2022-09-11T05:26:15.302Z,11.98
2022-09-11T05:28:42.231Z,12.40
2022-09-11T05:31:17.159Z,11.82
2022-09-11T05:33:45.089Z,12.10
2022-09-11T05:36:12.704Z,11.82
2022-09-11T05:38:39.566Z,13.57
2022-09-11T05:41:07.117Z,12.50
2022-09-11T05:43:34.208Z,12.93
2022-09-11T05:46:01.389Z,11.10
2022-09-11T05:48:29.063Z,11.25
2022-09-11T05:50:57.431Z,12.32
2022-09-11T05:53:24.404Z,13.30
2022-09-11T05:55:51.886Z,16.85
2022-09-11T05:58:19.044Z,16.13
2022-09-11T06:00:46.803Z,14.27
2022-09-11T06:03:17.738Z,14.55
2022-09-11T06:05:44.724Z,17.63
2022-09-11T06:08:12.045Z,14.60
2022-09-11T06:10:47.632Z,13.87
2022-09-11T06:13:17.965Z,12.05
2022-09-11T06:15:47.896Z,15.13
2022-09-11T06:18:15.366Z,12.43
2022-09-11T06:20:42.392Z,10.85
2022-09-11T06:23:10.605Z,13.87
2022-09-11T06:25:37.801Z,12.48
2022-09-11T06:28:04.625Z,12.88
2022-09-11T06:30:31.520Z,12.73
2022-09-11T06:32:59.334Z,11.70
2022-09-11T06:35:26.526Z,10.73
2022-09-11T06:37:53.372Z,11.80
2022-09-11T06:40:20.214Z,11.48
2022-09-11T06:42:47.503Z,10.75
2022-09-11T06:45:14.498Z,12.38
2022-09-11T06:47:41.325Z,9.90
2022-09-11T06:50:08.645Z,9.85
2022-09-11T06:52:35.744Z,12.15
2022-09-11T06:55:02.600Z,13.32
2022-09-11T06:57:29.484Z,10.18
2022-09-11T06:59:58.002Z,10.30
2022-09-11T07:02:25.746Z,9.15
2022-09-11T07:04:53.366Z,9.95
2022-09-11T07:07:20.376Z,15.63
2022-09-11T07:09:47.121Z,7.53
2022-09-11T07:12:13.984Z,5.00
2022-09-11T07:14:41.449Z,5.70
2022-09-11T07:17:08.290Z,7.38
2022-09-11T07:19:35.820Z,5.45
2022-09-11T07:22:02.725Z,6.32
2022-09-11T07:24:29.627Z,8.27
2022-09-11T07:26:56.541Z,7.80
2022-09-11T07:29:23.789Z,5.45
2022-09-11T07:31:50.733Z,6.03
2022-09-11T07:34:17.607Z,5.93
2022-09-11T07:36:45.751Z,7.70
2022-09-11T07:39:15.519Z,6.15
2022-09-11T07:41:42.368Z,6.10
2022-09-11T07:44:09.250Z,5.65
2022-09-11T07:46:36.191Z,5.80
2022-09-11T07:49:03.507Z,7.20
2022-09-11T07:51:30.366Z,8.02
2022-09-11T07:53:58.277Z,5.63
2022-09-11T07:56:25.580Z,4.97
2022-09-11T07:58:53.944Z,8.95
2022-09-11T08:01:25.376Z,9.10
2022-09-11T08:03:57.807Z,7.80
2022-09-11T08:06:26.254Z,6.65
2022-09-11T08:08:54.455Z,6.85
2022-09-11T08:11:21.671Z,5.15
2022-09-11T08:13:53.533Z,5.97
2022-09-11T08:16:21.349Z,5.50
2022-09-11T08:18:48.367Z,6.35
2022-09-11T08:21:15.509Z,6.60
2022-09-11T08:23:43.424Z,5.60
2022-09-11T08:26:14.176Z,6.90
2022-09-11T08:28:43.266Z,6.88
2022-09-11T08:31:10.331Z,6.70
2022-09-11T08:33:37.266Z,6.82
2022-09-11T08:36:06.030Z,7.63
2022-09-11T08:38:33.658Z,7.93
2022-09-11T08:41:28.473Z,5.45
2022-09-11T08:44:01.652Z,4.40
2022-09-11T08:46:32.209Z,5.38
2022-09-11T08:49:17.993Z,5.43
2022-09-11T08:51:47.264Z,5.20
2022-09-11T08:54:38.086Z,5.95
2022-09-11T08:57:30.626Z,5.00
2022-09-11T09:00:22.407Z,5.18
2022-09-11T09:03:11.177Z,5.25
2022-09-11T09:05:46.339Z,4.10
2022-09-11T09:08:50.017Z,4.22
2022-09-11T09:11:23.448Z,3.83
2022-09-11T09:14:14.802Z,4.90
2022-09-11T09:16:56.007Z,5.70
2022-09-11T09:19:43.113Z,6.63
2022-09-11T09:22:24.107Z,3.42
2022-09-11T09:24:53.785Z,4.03
2022-09-11T09:27:25.913Z,7.35
2022-09-11T09:29:54.831Z,3.92
2022-09-11T09:32:50.867Z,4.30
2022-09-11T09:35:41.213Z,4.82
2022-09-11T09:38:16.127Z,6.75
2022-09-11T09:41:09.645Z,4.72
2022-09-11T09:44:18.965Z,3.60
2022-09-11T09:46:50.960Z,4.43
2022-09-11T09:49:23.367Z,4.55
2022-09-11T09:51:51.460Z,8.32
2022-09-11T09:54:19.624Z,4.82
2022-09-11T09:56:53.361Z,6.13
2022-09-11T09:59:33.405Z,4.30
2022-09-11T10:02:00.452Z,4.97
2022-09-11T10:04:29.387Z,4.25
2022-09-11T10:07:29.488Z,5.80
2022-09-11T10:09:58.531Z,4.78
2022-09-11T10:12:26.850Z,5.33
2022-09-11T10:14:58.247Z,4.35
2022-09-11T10:17:33.471Z,5.85
2022-09-11T10:20:13.706Z,4.65
2022-09-11T10:22:40.565Z,4.75
2022-09-11T10:25:30.257Z,4.10
2022-09-11T10:28:15.070Z,3.75
2022-09-11T10:30:44.535Z,4.75
2022-09-11T10:33:40.332Z,4.60
2022-09-11T10:36:09.134Z,4.18
2022-09-11T10:38:48.358Z,4.30
2022-09-11T10:41:19.379Z,5.40
2022-09-11T10:44:02.437Z,4.13
2022-09-11T10:46:53.087Z,4.28
2022-09-11T10:49:23.387Z,4.80
2022-09-11T10:52:16.564Z,5.17
2022-09-11T10:55:03.876Z,3.95
2022-09-11T10:57:30.651Z,3.58
2022-09-11T11:00:03.292Z,3.78
2022-09-11T11:02:33.230Z,5.80
2022-09-11T11:05:44.830Z,4.73
2022-09-11T11:08:34.583Z,5.97
2022-09-11T11:11:46.414Z,5.85
2022-09-11T11:14:50.394Z,4.85
2022-09-11T11:17:20.903Z,4.28
2022-09-11T11:19:50.235Z,4.53
2022-09-11T11:22:28.990Z,4.30
2022-09-11T11:24:58.511Z,6.53
2022-09-11T11:27:47.010Z,4.53
2022-09-11T11:30:35.683Z,6.00
2022-09-11T11:33:25.698Z,4.33
2022-09-11T11:36:01.510Z,6.80
2022-09-11T11:38:53.134Z,5.85
2022-09-11T11:41:25.770Z,5.07
2022-09-11T11:43:53.068Z,3.88
2022-09-11T11:46:26.057Z,7.13
2022-09-11T11:49:20.412Z,8.05
2022-09-11T11:52:06.136Z,4.28
2022-09-11T11:54:37.837Z,5.90
2022-09-11T11:57:13.472Z,3.92
2022-09-11T11:59:46.827Z,4.53
2022-09-11T12:02:36.007Z,5.25
2022-09-11T12:05:10.435Z,3.60
2022-09-11T12:07:37.528Z,4.38
2022-09-11T12:10:06.245Z,3.97
2022-09-11T12:12:43.897Z,4.50
2022-09-11T12:15:24.229Z,4.47
2022-09-11T12:18:18.673Z,5.72
2022-09-11T12:20:46.092Z,6.60
2022-09-11T12:23:31.707Z,4.15
2022-09-11T12:26:24.852Z,8.47
2022-09-11T12:29:15.992Z,7.43
2022-09-11T12:32:14.912Z,6.22
2022-09-11T12:34:44.610Z,4.47
2022-09-11T12:37:18.887Z,4.20
2022-09-11T12:39:52.757Z,6.50
2022-09-11T12:42:28.353Z,5.45
2022-09-11T12:44:58.397Z,4.50
2022-09-11T12:47:29.313Z,3.85
2022-09-11T12:50:06.886Z,6.15
2022-09-11T12:52:45.786Z,5.20
2022-09-11T12:55:36.012Z,5.70
2022-09-11T12:58:05.210Z,4.07
2022-09-11T13:00:37.972Z,6.30
2022-09-11T13:03:05.455Z,4.70
2022-09-11T13:05:38.073Z,5.10
2022-09-11T13:08:24.233Z,3.90
2022-09-11T13:10:51.095Z,4.18
2022-09-11T13:13:37.568Z,6.63
2022-09-11T13:16:22.969Z,3.95
2022-09-11T13:18:49.837Z,6.57
2022-09-11T13:21:20.347Z,4.28
2022-09-11T13:23:50.045Z,4.68
2022-09-11T13:26:25.873Z,4.30
2022-09-11T13:28:54.368Z,5.30
2022-09-11T13:31:33.957Z,4.80
2022-09-11T13:34:01.296Z,4.20
2022-09-11T13:36:28.199Z,4.85
2022-09-11T13:38:58.241Z,5.88
2022-09-11T13:41:29.912Z,4.97
2022-09-11T13:43:58.883Z,4.50
2022-09-11T13:46:31.364Z,4.20
2022-09-11T13:49:11.029Z,4.60
2022-09-11T13:51:41.010Z,6.65
2022-09-11T13:54:10.241Z,3.90
2022-09-11T13:56:51.165Z,3.73
2022-09-11T13:59:41.203Z,3.85
2022-09-11T14:02:45.564Z,5.20
2022-09-11T14:05:31.526Z,6.85
2022-09-11T14:07:59.971Z,3.80
2022-09-11T14:10:43.025Z,6.17
2022-09-11T14:13:12.649Z,5.32
2022-09-11T14:15:42.581Z,3.90
2022-09-11T14:18:19.445Z,3.97
2022-09-11T14:20:46.342Z,6.40
2022-09-11T14:23:19.448Z,4.90
2022-09-11T14:26:05.753Z,5.18
2022-09-11T14:28:49.244Z,4.25
2022-09-11T14:31:28.714Z,4.22
2022-09-11T14:34:18.363Z,5.22
2022-09-11T14:36:47.753Z,5.03
2022-09-11T14:39:19.844Z,4.10
2022-09-11T14:41:46.685Z,4.32
2022-09-11T14:44:14.765Z,6.43
2022-09-11T14:46:41.694Z,5.95
2022-09-11T14:49:09.562Z,4.80
2022-09-11T14:51:37.802Z,7.60
2022-09-11T14:54:05.802Z,6.03
2022-09-11T14:56:33.248Z,5.35
2022-09-11T14:59:00.084Z,4.72
2022-09-11T15:01:27.076Z,4.93
2022-09-11T15:03:55.068Z,7.20
2022-09-11T15:06:22.121Z,5.82
2022-09-11T15:08:49.048Z,7.97
2022-09-11T15:11:16.495Z,7.53
2022-09-11T15:14:10.964Z,7.47
2022-09-11T15:16:31.483Z,10.90
2022-09-11T15:18:58.461Z,5.75
2022-09-11T15:21:25.300Z,5.78
2022-09-11T15:23:52.534Z,5.65
2022-09-11T15:26:19.379Z,8.13
2022-09-11T15:28:49.936Z,5.32
2022-09-11T15:31:18.757Z,4.13
2022-09-11T15:33:50.765Z,5.32
2022-09-11T15:36:18.624Z,6.43
2022-09-11T15:38:52.433Z,3.53
2022-09-11T15:41:22.086Z,4.80
2022-09-11T15:43:50.642Z,4.43
2022-09-11T15:46:22.744Z,4.45
2022-09-11T15:48:49.956Z,5.57
2022-09-11T15:51:18.468Z,6.10
2022-09-11T15:53:45.443Z,8.07
2022-09-11T15:56:16.824Z,4.85
2022-09-11T15:58:45.151Z,3.85
2022-09-11T16:01:19.361Z,6.85
2022-09-11T16:03:56.643Z,4.10
2022-09-11T16:06:25.162Z,5.88
2022-09-11T16:08:52.564Z,3.88
2022-09-11T16:11:20.584Z,4.25
2022-09-11T16:13:50.622Z,4.03
2022-09-11T16:16:17.984Z,4.20
2022-09-11T16:18:45.080Z,4.20
2022-09-11T16:21:12.902Z,4.78
2022-09-11T16:23:39.867Z,4.38
2022-09-11T16:26:14.745Z,4.95
2022-09-11T16:28:41.608Z,4.07
2022-09-11T16:31:09.865Z,4.22
2022-09-11T16:33:40.551Z,4.78
2022-09-11T16:36:08.720Z,5.63
2022-09-11T16:38:37.003Z,8.00
2022-09-11T16:41:07.708Z,6.80
2022-09-11T16:43:37.643Z,6.38
2022-09-11T16:46:04.590Z,5.68
2022-09-11T16:48:31.575Z,6.20
2022-09-11T16:50:58.631Z,5.78
2022-09-11T16:53:26.691Z,5.47
2022-09-11T16:55:53.574Z,4.80
2022-09-11T16:58:20.653Z,4.53
2022-09-11T17:00:47.577Z,5.20
2022-09-11T17:03:15.081Z,5.70
2022-09-11T17:05:51.844Z,4.53
2022-09-11T17:08:18.792Z,5.05
2022-09-11T17:10:45.964Z,5.97
2022-09-11T17:13:12.920Z,5.43
2022-09-11T17:15:40.661Z,5.53
2022-09-11T17:18:07.590Z,4.80
2022-09-11T17:20:34.471Z,4.97
2022-09-11T17:23:01.302Z,4.90
2022-09-11T17:25:28.165Z,5.68
2022-09-11T17:27:55.029Z,6.75
2022-09-11T17:30:22.126Z,7.13
2022-09-11T17:32:48.989Z,9.25
2022-09-11T17:35:15.987Z,8.70
2022-09-11T17:37:46.792Z,7.00
2022-09-11T17:40:14.507Z,7.25
2022-09-11T17:42:41.907Z,6.03
2022-09-11T17:45:10.203Z,5.75
2022-09-11T17:47:37.089Z,6.30
2022-09-11T17:50:04.652Z,7.57
2022-09-11T17:52:32.222Z,8.32
2022-09-11T17:54:59.098Z,6.43
2022-09-11T17:57:25.920Z,8.15
2022-09-11T17:59:53.122Z,7.32
2022-09-11T18:02:21.539Z,7.10
2022-09-11T18:04:48.513Z,8.32
2022-09-11T18:07:15.604Z,7.20
2022-09-11T18:09:42.547Z,7.22
2022-09-11T18:12:10.111Z,6.53
2022-09-11T18:14:37.950Z,6.75
2022-09-11T18:17:04.858Z,8.48
2022-09-11T18:19:31.723Z,6.57
2022-09-11T18:21:59.825Z,7.10
2022-09-11T18:24:29.840Z,6.90
2022-09-11T18:27:00.721Z,7.80
2022-09-11T18:29:29.969Z,7.53
2022-09-11T18:31:57.421Z,7.07
2022-09-11T18:34:26.165Z,8.63
2022-09-11T18:36:53.019Z,7.43
2022-09-11T18:39:21.116Z,7.90
2022-09-11T18:41:48.493Z,7.40
2022-09-11T18:44:19.931Z,7.33
2022-09-11T18:46:47.193Z,6.43
2022-09-11T18:49:14.370Z,7.43
2022-09-11T18:51:42.284Z,9.75
2022-09-11T18:54:16.237Z,8.10
2022-09-11T18:56:43.278Z,8.90
2022-09-11T18:59:10.884Z,5.93
2022-09-11T19:01:39.153Z,7.75
2022-09-11T19:04:10.408Z,7.55
2022-09-11T19:06:40.112Z,7.55
2022-09-11T19:09:13.573Z,9.47
2022-09-11T19:11:40.802Z,7.45
2022-09-11T19:14:09.503Z,8.13
2022-09-11T19:16:36.633Z,8.20
2022-09-11T19:19:03.807Z,9.10
2022-09-11T19:21:30.790Z,7.00
2022-09-11T19:24:00.375Z,7.57
2022-09-11T19:26:30.075Z,7.85
2022-09-11T19:28:57.102Z,8.30
2022-09-11T19:31:25.081Z,8.13
2022-09-11T19:33:52.228Z,8.23
2022-09-11T19:36:21.609Z,9.70
2022-09-11T19:38:49.825Z,6.63
2022-09-11T19:41:18.342Z,8.35
2022-09-11T19:43:45.435Z,9.15
2022-09-11T19:46:24.347Z,7.97
2022-09-11T19:48:52.182Z,10.93
2022-09-11T19:51:23.966Z,8.77
2022-09-11T19:53:51.363Z,6.53
2022-09-11T19:56:18.645Z,7.70
2022-09-11T19:58:45.544Z,8.17
2022-09-11T20:01:14.314Z,7.25
2022-09-11T20:03:42.706Z,7.50
2022-09-11T20:06:09.984Z,7.95
2022-09-11T20:08:37.197Z,7.30
2022-09-11T20:11:05.536Z,12.60
2022-09-11T20:13:32.925Z,7.00
2022-09-11T20:16:10.171Z,7.38
2022-09-11T20:18:37.128Z,8.13
2022-09-11T20:21:05.620Z,8.48
2022-09-11T20:23:32.521Z,7.47
2022-09-11T20:26:18.906Z,6.72
2022-09-11T20:28:53.624Z,8.05
2022-09-11T20:31:31.731Z,8.52
2022-09-11T20:34:00.668Z,8.38
2022-09-11T20:36:30.067Z,8.10
2022-09-11T20:38:58.349Z,7.43
2022-09-11T20:41:28.966Z,9.23
2022-09-11T20:44:00.497Z,7.32
2022-09-11T20:46:27.636Z,7.63
2022-09-11T20:48:54.570Z,7.13
2022-09-11T20:51:21.905Z,7.30
2022-09-11T20:53:49.180Z,7.10
2022-09-11T20:56:18.046Z,7.35
2022-09-11T20:58:45.056Z,7.43
2022-09-11T21:01:13.798Z,8.80
2022-09-11T21:03:45.615Z,9.02
2022-09-11T21:06:12.642Z,10.07
2022-09-11T21:08:41.338Z,7.82
2022-09-11T21:11:08.335Z,6.53
2022-09-11T21:13:38.763Z,9.03
2022-09-11T21:16:07.378Z,8.75
2022-09-11T21:18:34.619Z,8.80
2022-09-11T21:21:01.493Z,6.45
2022-09-11T21:23:28.380Z,7.25
2022-09-11T21:25:55.263Z,9.37
2022-09-11T21:28:22.327Z,7.43
2022-09-11T21:30:49.280Z,7.63
2022-09-11T21:33:16.105Z,7.13
2022-09-11T21:35:42.963Z,7.25
2022-09-11T21:38:09.805Z,10.40
2022-09-11T21:40:36.606Z,7.75
2022-09-11T21:43:03.490Z,8.52
2022-09-11T21:45:30.324Z,6.45
2022-09-11T21:47:57.222Z,7.72
2022-09-11T21:50:24.065Z,8.53
2022-09-11T21:52:50.921Z,8.38
2022-09-11T21:55:18.922Z,7.50
2022-09-11T21:57:45.804Z,7.50
2022-09-11T22:00:13.402Z,7.35
2022-09-11T22:02:40.696Z,8.03
2022-09-11T22:05:07.770Z,8.38
2022-09-11T22:07:34.922Z,10.50
2022-09-11T22:10:02.281Z,7.65
2022-09-11T22:12:29.148Z,8.88
2022-09-11T22:14:55.979Z,8.33
2022-09-11T22:17:23.045Z,7.10
2022-09-11T22:19:50.003Z,7.63
2022-09-11T22:22:16.940Z,6.97
2022-09-11T22:24:43.857Z,7.40
2022-09-11T22:27:10.787Z,8.50
2022-09-11T22:29:37.702Z,7.55
2022-09-11T22:32:05.465Z,5.55
2022-09-11T22:34:36.402Z,8.05
2022-09-11T22:37:03.439Z,6.13
2022-09-11T22:39:31.885Z,12.67
2022-09-11T22:41:59.792Z,8.10
2022-09-11T22:44:26.762Z,7.40
2022-09-11T22:46:53.822Z,7.45
2022-09-11T22:49:20.623Z,7.50
2022-09-11T22:51:47.610Z,7.13
2022-09-11T22:54:14.544Z,9.00
2022-09-11T22:56:41.499Z,6.93
2022-09-11T22:59:08.473Z,7.10
2022-09-11T23:01:35.561Z,6.72
2022-09-11T23:04:02.666Z,7.40
2022-09-11T23:06:47.838Z,6.90
2022-09-11T23:09:16.930Z,7.13
2022-09-11T23:11:47.462Z,9.10
2022-09-11T23:14:14.921Z,7.15
2022-09-11T23:16:42.309Z,10.50
2022-09-11T23:19:11.921Z,7.03
2022-09-11T23:21:38.760Z,9.32
2022-09-11T23:24:10.540Z,7.30
2022-09-11T23:26:37.362Z,8.32
2022-09-11T23:29:04.435Z,7.27
2022-09-11T23:31:32.811Z,7.43
2022-09-11T23:34:01.309Z,7.28
2022-09-11T23:36:28.663Z,9.10
2022-09-11T23:38:55.599Z,8.05
2022-09-11T23:41:22.708Z,5.70
2022-09-11T23:43:49.602Z,8.20
2022-09-11T23:46:16.587Z,6.43
2022-09-11T23:48:43.561Z,7.40
2022-09-11T23:51:10.665Z,6.45
2022-09-11T23:53:39.189Z,7.50
2022-09-11T23:56:07.042Z,7.60
2022-09-11T23:58:37.902Z,9.25
